Time;durP1;ratioP1;P1;durP2;ratioP2;P2;SDS_P1;SDS_P2;PMS_P1;PMS_P2;Temp;Humidity;BMP_temperature;BMP_pressure;BME280_temperature;BME280_humidity;BME280_pressure;Samples;Min_cycle;Max_cycle;Signal;HPM_P1;HPM_P2
2023/10/23 00:01:14;;;;;;;5.90;4.00;;;;;;;11.12;66.38;96004.22;4973645;28;20235;-70
2023/10/23 00:03:40;;;;;;;4.73;3.50;;;;;;;11.36;65.17;95996.81;4990790;28;20905;-71
2023/10/23 00:06:06;;;;;;;6.00;3.60;;;;;;;11.09;66.75;96007.84;4990810;28;20197;-70
2023/10/23 00:08:31;;;;;;;6.17;3.80;;;;;;;10.80;67.46;96004.97;4990765;28;20778;-71
2023/10/23 00:10:57;;;;;;;4.80;3.90;;;;;;;10.56;69.10;96016.72;4990987;28;20173;-70
2023/10/23 00:13:22;;;;;;;9.57;3.40;;;;;;;10.90;67.72;96007.97;4990996;28;20181;-71
2023/10/23 00:15:48;;;;;;;4.00;3.10;;;;;;;10.90;67.67;96007.97;4991071;28;20231;-71
2023/10/23 00:18:13;;;;;;;6.00;4.20;;;;;;;10.98;67.35;96020.69;4990874;28;20184;-71
2023/10/23 00:20:38;;;;;;;8.70;3.97;;;;;;;11.05;67.53;96013.34;4990825;28;20226;-71
2023/10/23 00:23:04;;;;;;;5.60;3.60;;;;;;;11.14;67.08;96018.13;4990746;28;20180;-71
2023/10/23 00:25:29;;;;;;;6.90;3.80;;;;;;;10.93;67.50;96010.41;4990626;28;20232;-71
2023/10/23 00:27:54;;;;;;;4.80;3.40;;;;;;;11.10;67.00;96006.06;4991057;28;20227;-71
2023/10/23 00:30:20;;;;;;;3.53;3.17;;;;;;;10.65;68.62;96013.59;4991019;28;20264;-73
2023/10/23 00:32:45;;;;;;;4.43;3.87;;;;;;;10.68;68.17;96008.22;4990722;28;21025;-71
2023/10/23 00:35:10;;;;;;;7.20;4.20;;;;;;;10.83;68.08;96024.09;4990615;28;20656;-70
2023/10/23 00:37:36;;;;;;;3.30;3.00;;;;;;;10.68;68.77;96018.72;4990344;28;20219;-70
2023/10/23 00:40:01;;;;;;;10.23;6.23;;;;;;;10.81;68.15;96021.56;4990968;28;20295;-70
2023/10/23 00:42:27;;;;;;;4.17;3.30;;;;;;;10.83;68.03;96024.09;4991316;28;20177;-71
2023/10/23 00:44:52;;;;;;;7.77;3.40;;;;;;;10.98;67.76;96024.19;4988167;28;20197;-71
2023/10/23 00:47:18;;;;;;;5.83;3.60;;;;;;;10.89;67.75;96029.03;4989814;28;20208;-71
2023/10/23 00:49:43;;;;;;;6.30;3.77;;;;;;;10.79;68.38;96021.66;4989681;28;20184;-71
2023/10/23 00:52:09;;;;;;;7.20;3.60;;;;;;;10.78;67.81;96019.94;4990011;28;20404;-71
2023/10/23 00:54:36;;;;;;;6.87;3.23;;;;;;;10.67;68.45;96024.88;4989687;28;20201;-70
2023/10/23 00:57:03;;;;;;;7.53;3.77;;;;;;;10.93;67.14;96027.94;4990369;28;20281;-70
2023/10/23 00:59:30;;;;;;;4.13;3.27;;;;;;;10.86;68.06;96027.41;4990412;28;20420;-71
2023/10/23 01:01:56;;;;;;;7.13;3.80;;;;;;;10.94;66.95;96027.88;4990390;28;20416;-71
2023/10/23 01:04:22;;;;;;;4.43;3.60;;;;;;;10.83;68.01;96021.47;4990223;28;20447;-71
2023/10/23 01:06:49;;;;;;;6.00;3.60;;;;;;;10.84;67.59;96021.38;4990292;28;20553;-71
2023/10/23 01:09:15;;;;;;;3.70;3.40;;;;;;;10.64;67.87;96030.28;4989892;28;20502;-70
2023/10/23 01:11:41;;;;;;;7.57;3.33;;;;;;;10.71;67.57;96018.53;4990002;28;20500;-71
2023/10/23 01:14:06;;;;;;;15.90;3.77;;;;;;;10.79;67.58;96011.16;4989754;28;20231;-71
2023/10/23 01:16:32;;;;;;;5.03;3.50;;;;;;;10.86;66.87;96010.81;4989938;28;20313;-71
2023/10/23 01:18:57;;;;;;;9.50;3.80;;;;;;;10.77;67.44;96001.63;4988822;28;20212;-71
2023/10/23 01:21:23;;;;;;;9.70;3.60;;;;;;;10.91;67.50;96000.94;4988626;28;20215;-70
2023/10/23 01:23:50;;;;;;;10.17;4.60;;;;;;;10.81;67.12;96001.41;4988355;28;20181;-70
2023/10/23 01:26:16;;;;;;;4.53;3.70;;;;;;;10.67;67.30;95990.75;4988732;28;20725;-70
2023/10/23 01:28:41;;;;;;;6.60;3.37;;;;;;;10.68;67.43;95996.88;4987123;28;20435;-71
2023/10/23 01:31:06;;;;;;;8.03;3.77;;;;;;;10.75;67.60;95998.25;4988386;28;20173;-70
2023/10/23 01:33:32;;;;;;;9.57;3.40;;;;;;;10.71;67.38;95991.47;4988035;28;20209;-72
2023/10/23 01:35:57;;;;;;;6.80;3.70;;;;;;;10.80;67.17;95993.63;4988308;28;20197;-70
2023/10/23 01:38:22;;;;;;;4.70;3.07;;;;;;;10.75;67.27;96006.13;4988630;28;20224;-71
2023/10/23 01:40:48;;;;;;;7.97;3.67;;;;;;;10.64;67.75;96006.66;4988321;28;20172;-70
2023/10/23 01:43:13;;;;;;;6.40;3.60;;;;;;;10.66;67.88;96004.81;4988042;28;20670;-71
2023/10/23 01:45:39;;;;;;;5.03;3.40;;;;;;;10.71;67.42;96008.06;4988043;28;20204;-71
2023/10/23 01:48:05;;;;;;;6.50;3.10;;;;;;;10.63;67.26;96014.59;4988310;28;20919;-71
2023/10/23 01:50:31;;;;;;;18.63;3.53;;;;;;;10.78;66.61;96005.97;4988271;28;20313;-71
2023/10/23 01:52:57;;;;;;;6.90;2.93;;;;;;;10.62;67.46;96002.41;4988329;28;20498;-71
2023/10/23 01:55:22;;;;;;;5.27;2.97;;;;;;;10.63;67.37;96002.34;4987800;28;20211;-70
2023/10/23 01:57:47;;;;;;;9.83;3.27;;;;;;;10.53;67.23;96001.09;4988527;28;20175;-70
2023/10/23 02:00:13;;;;;;;3.80;3.00;;;;;;;10.66;67.49;95998.72;4988056;28;20200;-70
2023/10/23 02:02:39;;;;;;;7.00;3.80;;;;;;;10.47;67.85;96004.03;4988207;28;20596;-70
2023/10/23 02:05:04;;;;;;;7.63;2.77;;;;;;;10.58;66.83;96006.97;4987276;28;20450;-71
2023/10/23 02:07:30;;;;;;;9.60;3.20;;;;;;;10.55;66.38;96001.88;4988894;28;20211;-71
2023/10/23 02:10:00;;;;;;;5.63;3.10;;;;;;;10.47;67.20;96004.03;4970755;28;20177;-71
2023/10/23 02:12:25;;;;;;;3.57;2.90;;;;;;;10.35;67.01;96003.72;4987965;28;20187;-71
2023/10/23 02:14:52;;;;;;;4.20;3.10;;;;;;;10.36;66.85;96001.94;4987414;28;20440;-71
2023/10/23 02:17:18;;;;;;;3.90;3.30;;;;;;;10.36;67.22;95996.69;4987756;28;20184;-70
2023/10/23 02:19:45;;;;;;;10.63;3.80;;;;;;;10.41;67.22;96004.34;4987809;28;20408;-70
2023/10/23 02:22:10;;;;;;;7.47;3.40;;;;;;;10.00;68.13;96000.16;4988010;28;20467;-70
2023/10/23 02:24:36;;;;;;;4.10;2.93;;;;;;;9.98;68.59;95994.13;4988240;28;20517;-70
2023/10/23 02:27:02;;;;;;;24.97;4.67;;;;;;;10.22;67.77;95996.50;4988598;28;20828;-71
2023/10/23 02:29:28;;;;;;;8.40;3.50;;;;;;;10.24;67.83;95995.50;4989034;28;20181;-70
2023/10/23 02:31:53;;;;;;;10.30;3.17;;;;;;;10.20;67.30;96006.22;4988340;28;20788;-70
2023/10/23 02:34:19;;;;;;;5.40;3.40;;;;;;;10.32;67.29;96003.88;4988181;28;20272;-71
2023/10/23 02:36:44;;;;;;;4.93;2.80;;;;;;;10.08;67.62;96005.03;4987464;28;20332;-71
2023/10/23 02:39:10;;;;;;;4.03;2.70;;;;;;;10.25;67.56;96012.06;4987581;28;20184;-71
2023/10/23 02:41:35;;;;;;;4.10;3.10;;;;;;;10.31;67.02;96020.53;4987392;28;20176;-71
2023/10/23 02:44:00;;;;;;;3.63;3.20;;;;;;;10.11;67.89;96016.22;4987151;28;20176;-70
2023/10/23 02:46:26;;;;;;;5.23;3.50;;;;;;;10.18;67.51;96017.63;4987818;28;20274;-71
2023/10/23 02:48:51;;;;;;;11.37;3.40;;;;;;;10.20;67.56;96028.03;4987631;28;20232;-71
2023/10/23 02:51:17;;;;;;;5.30;2.77;;;;;;;10.27;67.26;96023.34;4987387;28;20263;-71
2023/10/23 02:53:43;;;;;;;5.13;2.73;;;;;;;10.38;67.00;96021.91;4987111;28;20177;-71
2023/10/23 02:56:12;;;;;;;4.80;3.77;;;;;;;10.38;67.06;96021.91;4986991;28;20451;-70
2023/10/23 02:58:38;;;;;;;4.23;3.30;;;;;;;10.43;66.57;96012.97;4987386;28;20603;-71
2023/10/23 03:01:13;;;;;;;9.37;4.03;;;;;;;10.30;67.35;96018.84;4987093;28;20447;-69
2023/10/23 03:03:40;;;;;;;5.50;2.60;;;;;;;10.20;67.83;96014.06;4986830;28;20288;-71
2023/10/23 03:06:05;;;;;;;11.93;3.90;;;;;;;10.01;67.81;96016.72;4986641;28;20447;-71
2023/10/23 03:08:31;;;;;;;7.50;2.93;;;;;;;10.13;67.16;96005.66;4986979;28;20412;-69
2023/10/23 03:10:56;;;;;;;4.87;3.30;;;;;;;10.17;66.82;96009.81;4986906;28;20264;-71
2023/10/23 03:13:22;;;;;;;7.10;3.17;;;;;;;10.16;66.91;96010.75;4987023;28;20180;-71
2023/10/23 03:15:48;;;;;;;6.90;3.10;;;;;;;9.85;68.02;96016.59;4986705;28;20201;-70
2023/10/23 03:18:13;;;;;;;8.10;4.27;;;;;;;10.11;66.99;96015.34;4987055;28;20417;-70
2023/10/23 03:20:40;;;;;;;4.20;3.17;;;;;;;9.93;67.60;96015.31;4986911;28;20683;-70
2023/10/23 03:23:05;;;;;;;4.93;2.80;;;;;;;9.91;67.88;96024.19;4987038;28;20177;-70
2023/10/23 03:25:30;;;;;;;5.03;3.43;;;;;;;9.58;68.97;96029.22;4986552;28;20509;-71
2023/10/23 03:27:56;;;;;;;6.37;4.00;;;;;;;9.72;68.75;96026.81;4986561;28;20295;-71
2023/10/23 03:30:21;;;;;;;5.30;3.20;;;;;;;9.80;68.58;96023.84;4987264;28;20169;-71
2023/10/23 03:32:46;;;;;;;5.77;3.03;;;;;;;9.85;68.25;96032.31;4987019;28;20188;-70
2023/10/23 03:35:12;;;;;;;5.40;3.70;;;;;;;9.77;68.32;96029.22;4986639;28;20574;-70
2023/10/23 03:37:37;;;;;;;3.57;3.27;;;;;;;9.76;68.36;96031.00;4969408;28;20628;-70
2023/10/23 03:40:03;;;;;;;6.27;3.17;;;;;;;9.40;69.54;96018.69;4986554;28;20201;-71
2023/10/23 03:42:28;;;;;;;6.13;3.10;;;;;;;9.60;69.06;96027.41;4986627;28;20168;-70
2023/10/23 03:44:53;;;;;;;3.53;3.10;;;;;;;9.70;68.55;96016.41;4986418;28;20255;-70
2023/10/23 03:47:19;;;;;;;3.80;3.20;;;;;;;9.74;68.30;96024.97;4986446;28;20203;-71
2023/10/23 03:49:44;;;;;;;3.70;2.90;;;;;;;9.67;68.49;96016.56;4987047;28;20181;-71
2023/10/23 03:52:09;;;;;;;3.43;3.00;;;;;;;9.80;68.72;96013.34;4986913;28;20180;-70
2023/10/23 03:54:35;;;;;;;4.60;3.20;;;;;;;9.62;68.60;96008.06;4986526;28;20200;-70
2023/10/23 03:57:00;;;;;;;5.77;2.90;;;;;;;9.52;69.08;96010.25;4986331;28;20181;-70
2023/10/23 03:59:26;;;;;;;5.63;3.50;;;;;;;9.56;68.83;96003.09;4986752;28;20257;-70
2023/10/23 04:01:51;;;;;;;3.83;3.10;;;;;;;9.53;68.57;96011.09;4986697;28;20169;-71
2023/10/23 04:04:16;;;;;;;4.93;3.73;;;;;;;9.56;68.57;96010.09;4969033;28;20286;-70
2023/10/23 04:06:42;;;;;;;6.00;3.70;;;;;;;9.50;68.68;96008.63;4986802;28;20682;-71
2023/10/23 04:09:07;;;;;;;4.77;3.37;;;;;;;9.27;70.02;96009.66;4986538;28;20165;-70
2023/10/23 04:11:32;;;;;;;4.83;3.53;;;;;;;9.46;69.42;96005.28;4986801;28;20172;-70
2023/10/23 04:13:58;;;;;;;7.90;3.87;;;;;;;9.28;69.36;96013.97;4986253;28;20180;-70
2023/10/23 04:16:23;;;;;;;6.03;3.10;;;;;;;9.48;68.52;96000.00;4987069;28;20181;-71
2023/10/23 04:18:48;;;;;;;6.23;3.50;;;;;;;9.37;69.01;96005.72;4986740;28;20187;-71
2023/10/23 04:21:14;;;;;;;6.87;3.80;;;;;;;9.45;68.85;96003.59;4981847;28;20252;-72
2023/10/23 04:23:40;;;;;;;4.47;3.67;;;;;;;9.31;69.58;96006.84;4984793;28;20251;-71
2023/10/23 04:26:07;;;;;;;5.13;4.70;;;;;;;9.36;69.38;95993.53;4984694;28;20212;-70
2023/10/23 04:28:33;;;;;;;8.50;5.23;;;;;;;9.31;69.70;95998.16;4986477;28;20203;-71
2023/10/23 04:30:59;;;;;;;3.90;3.40;;;;;;;9.25;69.74;96001.03;4988319;28;20516;-72
2023/10/23 04:33:25;;;;;;;4.17;3.77;;;;;;;8.89;71.53;95999.97;4988618;28;20440;-70
2023/10/23 04:35:52;;;;;;;8.33;3.90;;;;;;;9.15;71.45;95999.75;4987535;28;20243;-72
2023/10/23 04:38:17;;;;;;;9.63;4.27;;;;;;;9.35;70.03;96001.47;4987639;28;20173;-71
2023/10/23 04:40:44;;;;;;;6.57;5.57;;;;;;;9.19;70.67;96001.28;4988514;28;20415;-71
2023/10/23 04:43:10;;;;;;;8.83;4.10;;;;;;;9.28;70.90;95995.66;4988107;28;20173;-71
2023/10/23 04:45:35;;;;;;;5.87;3.80;;;;;;;9.08;70.75;95993.94;4987247;28;20443;-71
2023/10/23 04:48:01;;;;;;;5.70;4.00;;;;;;;9.07;71.37;95993.09;4969952;28;20463;-71
2023/10/23 04:50:26;;;;;;;6.70;4.20;;;;;;;9.11;70.37;95991.16;4987284;28;20988;-71
2023/10/23 04:52:51;;;;;;;7.37;4.63;;;;;;;8.98;70.11;95998.72;4987443;28;20231;-71
2023/10/23 04:55:17;;;;;;;6.13;3.90;;;;;;;9.11;69.60;95997.25;4986791;28;20713;-68
2023/10/23 04:57:42;;;;;;;5.73;4.70;;;;;;;9.22;69.19;95991.53;4986550;28;20172;-67
2023/10/23 05:00:08;;;;;;;8.00;4.00;;;;;;;9.26;69.19;95987.00;4986815;28;20200;-70
2023/10/23 05:02:34;;;;;;;6.50;4.07;;;;;;;9.19;69.35;95994.31;4987233;28;20169;-68
2023/10/23 05:04:59;;;;;;;4.93;3.30;;;;;;;9.18;69.02;95991.75;4985878;28;21265;-68
2023/10/23 05:07:25;;;;;;;5.50;3.70;;;;;;;9.01;69.46;95988.13;4987411;28;20244;-68
2023/10/23 05:09:50;;;;;;;7.07;5.40;;;;;;;8.90;70.01;95975.53;4983152;28;20177;-67
2023/10/23 05:12:15;;;;;;;7.40;4.50;;;;;;;9.04;69.68;95976.66;4992352;28;20175;-68
2023/10/23 05:14:41;;;;;;;17.40;4.80;;;;;;;9.10;69.85;95979.84;4991515;28;20701;-68
2023/10/23 05:17:06;;;;;;;11.53;4.90;;;;;;;9.04;69.68;95979.28;4986258;28;20161;-67
2023/10/23 05:19:31;;;;;;;14.23;4.07;;;;;;;8.96;70.51;95984.00;4986370;28;20177;-67
2023/10/23 05:21:57;;;;;;;5.50;4.63;;;;;;;8.94;70.57;95980.63;4986433;28;20185;-68
2023/10/23 05:24:22;;;;;;;6.67;4.83;;;;;;;8.73;71.38;95982.41;4987855;28;20226;-67
2023/10/23 05:26:48;;;;;;;9.77;5.10;;;;;;;8.71;72.00;95979.00;4993536;28;20207;-68
2023/10/23 05:29:13;;;;;;;14.20;4.90;;;;;;;8.79;71.13;95971.69;4985991;28;20906;-67
2023/10/23 05:31:39;;;;;;;5.80;4.40;;;;;;;8.74;71.41;95969.25;4982892;28;20966;-67
2023/10/23 05:34:06;;;;;;;9.07;5.50;;;;;;;8.92;72.00;95978.06;4978123;28;20734;-67
2023/10/23 05:36:32;;;;;;;11.47;6.70;;;;;;;8.90;71.54;95972.91;4983607;28;20591;-68
2023/10/23 05:38:57;;;;;;;13.83;6.63;;;;;;;8.98;71.08;95971.72;4983388;28;20432;-68
2023/10/23 05:41:23;;;;;;;26.20;6.83;;;;;;;8.99;70.69;95970.78;4985196;28;20191;-68
2023/10/23 05:43:48;;;;;;;18.47;6.83;;;;;;;9.04;70.76;95974.88;4983784;28;20177;-67
2023/10/23 05:46:13;;;;;;;14.10;4.80;;;;;;;9.09;70.65;95972.06;4978459;28;20192;-69
2023/10/23 05:48:39;;;;;;;7.40;4.80;;;;;;;8.63;72.11;95971.47;4984835;28;20279;-68
2023/10/23 05:51:05;;;;;;;9.10;4.30;;;;;;;8.63;72.12;95976.72;4982606;28;20211;-68
2023/10/23 05:53:31;;;;;;;9.27;5.23;;;;;;;8.62;71.71;95977.63;4982267;28;20173;-66
2023/10/23 05:56:03;;;;;;;12.83;5.00;;;;;;;8.85;70.51;95981.84;4982724;28;21012;-67
2023/10/23 05:58:32;;;;;;;8.53;4.90;;;;;;;8.86;70.28;95987.03;4985793;28;20440;-67
2023/10/23 06:01:08;;;;;;;6.13;4.33;;;;;;;8.91;70.15;95999.91;4986037;28;20416;-68
2023/10/23 06:03:34;;;;;;;128.13;16.77;;;;;;;8.84;70.60;95990.63;4985099;28;20415;-68
2023/10/23 06:05:59;;;;;;;12.57;5.40;;;;;;;8.86;70.15;96000.13;4984747;28;20524;-68
2023/10/23 06:08:25;;;;;;;12.60;5.67;;;;;;;8.96;69.82;96003.19;4984408;28;20188;-68
2023/10/23 06:10:51;;;;;;;11.70;4.10;;;;;;;9.08;68.50;95999.16;4984870;28;20177;-69
2023/10/23 06:13:16;;;;;;;14.43;5.50;;;;;;;9.13;68.60;96005.03;4984862;28;20739;-68
2023/10/23 06:15:42;;;;;;;13.53;6.00;;;;;;;9.18;68.37;96010.06;4984665;28;20221;-69
2023/10/23 06:18:07;;;;;;;9.77;5.27;;;;;;;9.18;68.44;96013.53;4985075;28;20181;-68
2023/10/23 06:20:34;;;;;;;4.90;4.00;;;;;;;9.27;67.89;96022.75;4984573;28;20275;-67
2023/10/23 06:23:00;;;;;;;5.73;4.43;;;;;;;9.36;67.52;96022.34;4985897;28;20555;-69
2023/10/23 06:25:26;;;;;;;9.90;4.43;;;;;;;9.40;67.08;96021.31;4986433;28;20440;-68
2023/10/23 06:27:52;;;;;;;6.33;4.47;;;;;;;9.52;66.65;96030.38;4985784;28;20216;-68
2023/10/23 06:30:17;;;;;;;6.63;4.00;;;;;;;9.08;67.71;96033.19;4994887;28;20451;-68
2023/10/23 06:32:43;;;;;;;6.47;4.27;;;;;;;9.22;67.86;96038.69;4986503;28;20230;-68
2023/10/23 06:35:08;;;;;;;5.87;4.40;;;;;;;9.26;68.03;96035.00;4986129;28;20192;-68
2023/10/23 06:37:34;;;;;;;5.40;4.90;;;;;;;9.44;66.93;96041.16;4983758;28;20284;-67
2023/10/23 06:39:59;;;;;;;6.40;4.03;;;;;;;9.65;65.90;96041.13;4984602;28;20185;-68
2023/10/23 06:42:26;;;;;;;12.23;3.70;;;;;;;10.30;64.66;96028.47;4980557;28;20734;-69
2023/10/23 06:44:51;;;;;;;11.70;4.53;;;;;;;10.94;61.53;96029.66;4986393;28;20189;-68
2023/10/23 06:47:16;;;;;;;6.73;4.23;;;;;;;11.09;60.66;96025.41;4986447;28;20954;-67
2023/10/23 06:49:45;;;;;;;7.63;4.07;;;;;;;11.54;59.08;96023.88;4986405;28;20196;-68
2023/10/23 06:52:11;;;;;;;12.40;6.00;;;;;;;12.44;56.56;96016.25;4986077;28;20181;-68
2023/10/23 06:54:36;;;;;;;19.47;7.30;;;;;;;13.25;54.39;96012.41;4986517;28;20439;-68
2023/10/23 06:57:06;;;;;;;9.03;5.30;;;;;;;13.80;52.53;95995.84;4986532;28;20169;-68
2023/10/23 06:59:38;;;;;;;14.63;5.20;;;;;;;13.15;54.42;95985.75;4986547;28;20219;-68
2023/10/23 07:02:03;;;;;;;8.37;5.40;;;;;;;12.56;56.60;95979.66;4986529;28;20449;-67
2023/10/23 07:04:29;;;;;;;5.83;4.20;;;;;;;12.61;56.07;95972.31;4986075;28;20963;-67
2023/10/23 07:06:55;;;;;;;17.20;5.33;;;;;;;12.00;57.58;95979.31;4986363;28;20886;-68
2023/10/23 07:09:21;;;;;;;13.40;5.37;;;;;;;11.29;60.00;95988.44;4986551;28;20517;-68
2023/10/23 07:11:50;;;;;;;10.53;4.90;;;;;;;11.00;61.34;95979.44;4986508;28;20416;-68
2023/10/23 07:14:16;;;;;;;8.50;6.23;;;;;;;10.21;64.22;95992.19;4986265;28;20840;-68
2023/10/23 07:16:42;;;;;;;13.70;5.67;;;;;;;9.53;66.69;95983.13;4986422;28;20447;-66
2023/10/23 07:19:08;;;;;;;16.67;6.00;;;;;;;10.06;65.77;95978.03;4986355;28;20255;-68
2023/10/23 07:21:34;;;;;;;7.90;6.47;;;;;;;10.21;65.22;95966.81;4986514;28;20247;-68
2023/10/23 07:23:59;;;;;;;7.20;6.10;;;;;;;10.23;65.37;95967.59;4986411;28;20428;-69
2023/10/23 07:26:25;;;;;;;5.50;5.00;;;;;;;9.83;66.18;95972.16;4986264;28;20465;-68
2023/10/23 07:28:50;;;;;;;7.23;5.90;;;;;;;10.26;65.17;95975.28;4986142;28;20215;-68
2023/10/23 07:31:16;;;;;;;8.57;5.03;;;;;;;10.44;64.89;95970.06;4986825;28;20927;-68
2023/10/23 07:33:41;;;;;;;5.60;5.00;;;;;;;10.30;65.55;95961.16;4986212;28;20199;-67
2023/10/23 07:36:11;;;;;;;7.77;5.23;;;;;;;10.68;64.53;95966.22;4986388;28;20228;-68
2023/10/23 07:38:43;;;;;;;7.10;5.00;;;;;;;10.78;64.51;95963.97;4986226;28;20218;-68
2023/10/23 07:41:09;;;;;;;12.07;5.30;;;;;;;10.78;64.51;95967.44;4986599;28;20415;-67
2023/10/23 07:43:34;;;;;;;4.80;4.20;;;;;;;10.23;66.34;95977.19;4986222;28;21205;-69
2023/10/23 07:46:08;;;;;;;8.00;5.80;;;;;;;10.01;67.17;95969.53;4986215;28;20439;-69
2023/10/23 07:48:34;;;;;;;8.30;7.00;;;;;;;10.59;66.23;95969.31;4986241;28;20539;-68
2023/10/23 07:51:00;;;;;;;9.00;6.03;;;;;;;11.20;63.76;95960.88;4986295;28;20420;-68
2023/10/23 07:53:26;;;;;;;6.63;5.30;;;;;;;11.07;65.27;95970.31;4986021;28;20181;-68
2023/10/23 07:55:52;;;;;;;7.33;6.00;;;;;;;10.13;68.05;95974.19;4986284;28;20506;-68
2023/10/23 07:58:17;;;;;;;17.30;5.80;;;;;;;10.19;68.50;95963.41;4986843;28;20412;-70
2023/10/23 08:00:43;;;;;;;7.10;5.93;;;;;;;10.66;67.81;95968.06;4986921;28;20187;-68
2023/10/23 08:03:09;;;;;;;6.77;6.03;;;;;;;10.90;66.69;95959.88;4988067;28;20557;-69
2023/10/23 08:05:35;;;;;;;7.07;5.60;;;;;;;11.71;64.80;95957.25;4989554;28;20282;-69
2023/10/23 08:08:00;;;;;;;8.23;5.20;;;;;;;12.62;61.13;95958.25;4989675;28;20459;-68
2023/10/23 08:10:26;;;;;;;8.40;6.20;;;;;;;12.70;59.98;95953.34;4989458;28;20898;-72
2023/10/23 08:12:51;;;;;;;6.80;5.57;;;;;;;11.95;63.49;95957.69;4989518;28;20176;-68
2023/10/23 08:15:17;;;;;;;8.60;5.57;;;;;;;11.76;64.49;95956.06;4989477;28;20209;-68
2023/10/23 08:17:42;;;;;;;9.50;6.00;;;;;;;11.57;66.13;95952.75;4989580;28;20169;-68
2023/10/23 08:20:08;;;;;;;10.50;6.30;;;;;;;11.68;66.07;95947.78;4989596;28;20560;-68
2023/10/23 08:22:34;;;;;;;8.80;6.30;;;;;;;11.68;66.26;95946.94;4989467;28;20883;-67
2023/10/23 08:24:59;;;;;;;6.83;6.13;;;;;;;11.09;67.66;95944.00;4989010;28;20520;-68
2023/10/23 08:27:24;;;;;;;7.33;6.50;;;;;;;11.39;67.31;95931.84;4989131;28;20332;-68
2023/10/23 08:29:50;;;;;;;6.90;5.97;;;;;;;12.17;64.66;95924.00;4989184;28;20212;-67
2023/10/23 08:32:16;;;;;;;6.30;5.50;;;;;;;11.92;65.53;95924.53;4989216;28;20188;-68
2023/10/23 08:34:41;;;;;;;7.80;6.20;;;;;;;12.30;65.03;95918.84;4988815;28;20247;-69
2023/10/23 08:37:07;;;;;;;10.10;6.57;;;;;;;12.31;64.40;95910.03;4989406;28;20576;-68
2023/10/23 08:39:32;;;;;;;7.57;6.80;;;;;;;11.83;66.48;95932.91;4989126;28;20177;-68
2023/10/23 08:41:59;;;;;;;7.83;6.50;;;;;;;11.57;68.26;95929.94;4988999;28;20655;-68
2023/10/23 08:44:25;;;;;;;7.77;6.90;;;;;;;11.16;69.00;95937.47;4988535;28;20749;-68
2023/10/23 08:46:51;;;;;;;10.00;6.83;;;;;;;10.85;69.61;95949.59;4988613;28;20463;-68
2023/10/23 08:49:16;;;;;;;10.00;7.23;;;;;;;10.52;71.80;95949.56;4989086;28;20486;-68
2023/10/23 08:51:45;;;;;;;7.83;6.90;;;;;;;10.60;71.78;95955.25;4989666;28;20207;-68
2023/10/23 08:54:17;;;;;;;6.37;5.87;;;;;;;10.94;71.10;95959.63;4989064;28;20181;-68
2023/10/23 08:56:43;;;;;;;8.63;6.00;;;;;;;10.81;70.49;95951.53;4989246;28;20435;-68
2023/10/23 08:59:11;;;;;;;7.17;5.97;;;;;;;11.00;69.53;95947.94;4989208;28;20506;-68
2023/10/23 09:01:36;;;;;;;6.90;6.20;;;;;;;10.89;70.40;95947.66;4989095;28;20424;-68
2023/10/23 09:04:02;;;;;;;8.77;6.93;;;;;;;10.87;70.44;95953.00;4988984;28;20443;-67
2023/10/23 09:06:27;;;;;;;12.53;6.23;;;;;;;10.82;70.20;95947.16;4989034;28;20291;-68
2023/10/23 09:08:53;;;;;;;9.00;6.40;;;;;;;10.81;70.71;95941.03;4988624;28;20209;-67
2023/10/23 09:11:19;;;;;;;8.10;6.13;;;;;;;10.71;70.80;95937.19;4988676;28;20211;-67
2023/10/23 09:13:44;;;;;;;6.47;5.83;;;;;;;10.75;71.27;95938.75;4988081;28;20325;-67
2023/10/23 09:16:10;;;;;;;9.47;7.57;;;;;;;10.81;71.03;95927.06;4988932;28;20271;-67
2023/10/23 09:18:49;;;;;;;9.10;7.20;;;;;;;10.92;71.11;95926.50;4988480;28;20181;-68
2023/10/23 09:21:15;;;;;;;10.07;6.93;;;;;;;10.78;70.90;95921.97;4988511;28;20416;-69
2023/10/23 09:23:55;;;;;;;13.30;7.03;;;;;;;10.67;71.56;95914.66;4988323;28;20435;-68
2023/10/23 09:26:22;;;;;;;8.70;7.00;;;;;;;10.52;72.22;95912.84;4987235;28;20448;-68
2023/10/23 09:28:49;;;;;;;8.30;7.50;;;;;;;10.30;73.14;95913.06;4986992;28;20444;-68
2023/10/23 09:31:16;;;;;;;9.90;6.80;;;;;;;10.47;72.78;95909.59;4969150;28;20478;-68
2023/10/23 09:33:44;;;;;;;8.90;7.40;;;;;;;10.24;73.45;95906.34;4986446;28;20459;-67
2023/10/23 09:36:09;;;;;;;8.57;7.63;;;;;;;10.02;74.76;95900.47;4987486;28;20467;-66
2023/10/23 09:38:35;;;;;;;9.97;7.97;;;;;;;10.31;73.64;95907.75;4988092;28;20412;-69
2023/10/23 09:41:01;;;;;;;8.13;7.40;;;;;;;10.29;73.91;95912.22;4988286;28;20177;-69
2023/10/23 09:43:26;;;;;;;9.40;7.70;;;;;;;10.57;72.77;95926.56;4987722;28;20207;-68
2023/10/23 09:45:52;;;;;;;9.20;8.30;;;;;;;10.53;73.67;95925.00;4987822;28;20622;-67
2023/10/23 09:48:19;;;;;;;9.30;8.47;;;;;;;10.29;74.17;95914.00;4987761;28;20258;-68
2023/10/23 09:50:49;;;;;;;10.43;7.67;;;;;;;10.26;75.00;95922.00;4987605;28;20404;-68
2023/10/23 09:53:16;;;;;;;9.70;8.80;;;;;;;10.62;73.76;95924.53;4987752;28;20536;-68
2023/10/23 09:55:44;;;;;;;8.03;7.30;;;;;;;10.71;73.44;95924.06;4987532;28;20462;-68
2023/10/23 09:58:14;;;;;;;8.90;8.10;;;;;;;10.64;73.67;95913.97;4987504;28;20465;-69
2023/10/23 10:00:44;;;;;;;7.70;6.97;;;;;;;10.77;73.17;95917.63;4987467;28;20454;-68
2023/10/23 10:03:12;;;;;;;9.20;8.10;;;;;;;10.71;73.43;95913.56;4987507;28;21091;-67
2023/10/23 10:05:46;;;;;;;7.90;7.10;;;;;;;10.89;73.29;95908.28;4986965;28;20428;-69
2023/10/23 10:08:15;;;;;;;8.60;7.27;;;;;;;11.01;72.52;95902.41;4987336;28;20486;-69
2023/10/23 10:10:42;;;;;;;8.60;7.80;;;;;;;11.17;72.25;95895.38;4987358;28;20495;-69
2023/10/23 10:13:09;;;;;;;8.10;7.30;;;;;;;11.32;71.06;95892.84;4969669;28;20428;-68
2023/10/23 10:15:35;;;;;;;8.73;7.80;;;;;;;11.21;71.71;95888.16;4986714;28;20436;-69
2023/10/23 10:18:01;;;;;;;9.67;8.00;;;;;;;11.48;70.50;95887.56;4987470;28;20412;-69
2023/10/23 10:20:28;;;;;;;6.63;6.03;;;;;;;11.58;69.94;95896.66;4987281;28;20412;-70
2023/10/23 10:23:05;;;;;;;9.50;7.30;;;;;;;11.62;70.09;95891.16;4987347;28;20640;-68
2023/10/23 10:25:32;;;;;;;8.67;7.37;;;;;;;11.64;69.63;95893.66;4986345;28;20450;-68
2023/10/23 10:28:02;;;;;;;7.23;6.47;;;;;;;11.63;70.02;95887.56;4987180;28;20498;-68
2023/10/23 10:30:43;;;;;;;7.30;6.10;;;;;;;11.93;70.42;95884.19;4987538;28;20404;-68
2023/10/23 10:33:20;;;;;;;10.93;6.73;;;;;;;12.37;68.58;95883.34;4987504;28;20404;-68
2023/10/23 10:35:50;;;;;;;7.10;6.30;;;;;;;12.75;66.66;95879.34;4986791;28;20502;-68
2023/10/23 10:38:23;;;;;;;7.20;6.03;;;;;;;12.96;66.02;95871.94;4987180;28;20950;-69
2023/10/23 10:41:17;;;;;;;6.90;5.60;;;;;;;13.29;65.09;95861.94;4987076;28;20423;-69
2023/10/23 10:43:49;;;;;;;7.13;6.40;;;;;;;13.22;64.90;95857.97;4988113;28;20895;-68
2023/10/23 10:46:18;;;;;;;7.67;6.17;;;;;;;13.40;64.38;95858.63;4987732;28;20475;-67
2023/10/23 10:48:46;;;;;;;6.10;5.50;;;;;;;12.82;66.56;95862.25;4987137;28;20761;-67
2023/10/23 10:51:27;;;;;;;8.93;6.03;;;;;;;12.80;66.61;95856.22;4986761;28;20478;-68
2023/10/23 10:54:00;;;;;;;6.90;6.20;;;;;;;12.84;66.65;95855.09;4986338;28;20420;-68
2023/10/23 10:56:26;;;;;;;6.93;5.57;;;;;;;12.86;66.73;95842.69;4986800;28;20556;-68
2023/10/23 10:58:52;;;;;;;7.50;6.70;;;;;;;12.64;67.67;95841.38;4987707;28;20970;-68
2023/10/23 11:01:21;;;;;;;7.33;6.60;;;;;;;12.32;68.75;95838.06;4986351;28;20464;-68
2023/10/23 11:03:46;;;;;;;6.57;5.97;;;;;;;12.54;68.90;95815.69;4986147;28;20195;-68
2023/10/23 11:06:12;;;;;;;7.37;6.67;;;;;;;12.52;69.24;95815.81;4986006;28;20777;-68
2023/10/23 11:08:39;;;;;;;7.30;6.17;;;;;;;12.57;68.46;95810.28;4986793;28;20263;-68
2023/10/23 11:11:05;;;;;;;7.83;6.97;;;;;;;12.50;69.53;95807.16;4986399;28;20674;-68
2023/10/23 11:13:31;;;;;;;8.53;7.63;;;;;;;12.59;69.64;95800.47;4986517;28;20416;-68
2023/10/23 11:15:58;;;;;;;8.87;7.90;;;;;;;12.46;69.16;95803.00;4986311;28;20205;-68
2023/10/23 11:18:23;;;;;;;9.70;8.03;;;;;;;12.44;69.26;95803.09;4986503;28;20424;-68
2023/10/23 11:20:48;;;;;;;8.70;7.80;;;;;;;12.25;70.99;95805.16;4986386;28;20408;-68
2023/10/23 11:23:18;;;;;;;8.77;7.87;;;;;;;11.90;71.98;95797.56;4986434;28;20686;-68
2023/10/23 11:25:50;;;;;;;9.37;8.47;;;;;;;12.02;71.71;95791.63;4985771;28;20196;-67
2023/10/23 11:28:18;;;;;;;7.93;7.20;;;;;;;11.97;72.04;95791.00;4986043;28;21288;-68
2023/10/23 11:30:49;;;;;;;9.27;7.50;;;;;;;11.91;72.72;95787.94;4986156;28;20750;-67